sensor_id;sensor_type;location;lat;lon;timestamp;P1;durP1;ratioP1;P2;durP2;ratioP2
59169;SDS011;52474;52.236;5.114;2023-04-03T00:01:40;2.65;;;1.25;;
59169;SDS011;52474;52.236;5.114;2023-04-03T00:04:05;4.38;;;1.40;;
59169;SDS011;52474;52.236;5.114;2023-04-03T00:06:31;2.45;;;1.10;;
59169;SDS011;52474;52.236;5.114;2023-04-03T00:08:57;1.70;;;1.30;;
59169;SDS011;52474;52.236;5.114;2023-04-03T00:11:23;1.45;;;1.00;;
59169;SDS011;52474;52.236;5.114;2023-04-03T00:13:49;3.35;;;1.35;;
59169;SDS011;52474;52.236;5.114;2023-04-03T00:16:15;2.15;;;1.10;;
59169;SDS011;52474;52.236;5.114;2023-04-03T00:18:41;2.30;;;1.30;;
59169;SDS011;52474;52.236;5.114;2023-04-03T00:21:07;1.50;;;1.00;;
59169;SDS011;52474;52.236;5.114;2023-04-03T00:23:35;2.13;;;1.08;;
59169;SDS011;52474;52.236;5.114;2023-04-03T00:26:01;2.58;;;1.20;;
59169;SDS011;52474;52.236;5.114;2023-04-03T00:28:27;2.17;;;1.10;;
59169;SDS011;52474;52.236;5.114;2023-04-03T00:30:53;2.55;;;1.20;;
59169;SDS011;52474;52.236;5.114;2023-04-03T00:33:20;2.83;;;1.38;;
59169;SDS011;52474;52.236;5.114;2023-04-03T00:35:47;2.13;;;1.17;;
59169;SDS011;52474;52.236;5.114;2023-04-03T00:38:14;2.80;;;0.98;;
59169;SDS011;52474;52.236;5.114;2023-04-03T00:40:45;4.15;;;1.20;;
59169;SDS011;52474;52.236;5.114;2023-04-03T00:43:13;3.10;;;1.48;;
59169;SDS011;52474;52.236;5.114;2023-04-03T00:45:42;1.43;;;1.17;;
59169;SDS011;52474;52.236;5.114;2023-04-03T00:48:15;2.30;;;1.00;;
59169;SDS011;52474;52.236;5.114;2023-04-03T00:50:48;3.10;;;1.50;;
59169;SDS011;52474;52.236;5.114;2023-04-03T00:53:17;1.92;;;1.42;;
59169;SDS011;52474;52.236;5.114;2023-04-03T00:55:47;6.20;;;1.40;;
59169;SDS011;52474;52.236;5.114;2023-04-03T00:58:17;1.95;;;1.20;;
59169;SDS011;52474;52.236;5.114;2023-04-03T01:00:46;4.03;;;1.60;;
59169;SDS011;52474;52.236;5.114;2023-04-03T01:03:21;2.05;;;1.23;;
59169;SDS011;52474;52.236;5.114;2023-04-03T01:05:47;4.53;;;1.38;;
59169;SDS011;52474;52.236;5.114;2023-04-03T01:08:13;2.88;;;1.45;;
59169;SDS011;52474;52.236;5.114;2023-04-03T01:10:39;4.25;;;1.33;;
59169;SDS011;52474;52.236;5.114;2023-04-03T01:13:17;3.42;;;1.23;;
59169;SDS011;52474;52.236;5.114;2023-04-03T01:15:48;2.20;;;1.00;;
59169;SDS011;52474;52.236;5.114;2023-04-03T01:18:13;3.40;;;1.27;;
59169;SDS011;52474;52.236;5.114;2023-04-03T01:20:46;1.92;;;1.30;;
59169;SDS011;52474;52.236;5.114;2023-04-03T01:23:44;2.33;;;1.02;;
59169;SDS011;52474;52.236;5.114;2023-04-03T01:26:12;3.75;;;1.40;;
59169;SDS011;52474;52.236;5.114;2023-04-03T01:28:38;5.30;;;1.70;;
59169;SDS011;52474;52.236;5.114;2023-04-03T01:31:24;6.63;;;1.30;;
59169;SDS011;52474;52.236;5.114;2023-04-03T01:33:58;3.15;;;1.45;;
59169;SDS011;52474;52.236;5.114;2023-04-03T01:36:25;3.38;;;1.40;;
59169;SDS011;52474;52.236;5.114;2023-04-03T01:38:54;3.83;;;1.98;;
59169;SDS011;52474;52.236;5.114;2023-04-03T01:41:22;3.40;;;1.40;;
59169;SDS011;52474;52.236;5.114;2023-04-03T01:43:50;4.32;;;1.05;;
59169;SDS011;52474;52.236;5.114;2023-04-03T01:46:16;2.90;;;1.20;;
59169;SDS011;52474;52.236;5.114;2023-04-03T01:48:48;1.95;;;1.20;;
59169;SDS011;52474;52.236;5.114;2023-04-03T01:51:14;3.17;;;1.38;;
59169;SDS011;52474;52.236;5.114;2023-04-03T01:53:40;4.57;;;1.45;;
59169;SDS011;52474;52.236;5.114;2023-04-03T01:56:06;2.83;;;1.38;;
59169;SDS011;52474;52.236;5.114;2023-04-03T01:58:33;3.22;;;1.20;;
59169;SDS011;52474;52.236;5.114;2023-04-03T02:00:59;3.10;;;1.52;;
59169;SDS011;52474;52.236;5.114;2023-04-03T02:03:25;2.88;;;1.33;;
59169;SDS011;52474;52.236;5.114;2023-04-03T02:05:52;3.05;;;1.40;;
59169;SDS011;52474;52.236;5.114;2023-04-03T02:08:17;2.97;;;1.38;;
59169;SDS011;52474;52.236;5.114;2023-04-03T02:10:47;3.75;;;1.70;;
59169;SDS011;52474;52.236;5.114;2023-04-03T02:13:14;4.03;;;1.80;;
59169;SDS011;52474;52.236;5.114;2023-04-03T02:15:40;3.05;;;1.60;;
59169;SDS011;52474;52.236;5.114;2023-04-03T02:18:06;3.00;;;1.52;;
59169;SDS011;52474;52.236;5.114;2023-04-03T02:20:32;3.88;;;1.70;;
59169;SDS011;52474;52.236;5.114;2023-04-03T02:22:59;4.78;;;1.70;;
59169;SDS011;52474;52.236;5.114;2023-04-03T02:25:25;3.03;;;1.65;;
59169;SDS011;52474;52.236;5.114;2023-04-03T02:27:51;2.63;;;1.60;;
59169;SDS011;52474;52.236;5.114;2023-04-03T02:30:17;3.55;;;1.45;;
59169;SDS011;52474;52.236;5.114;2023-04-03T02:32:43;2.90;;;1.35;;
59169;SDS011;52474;52.236;5.114;2023-04-03T02:35:10;4.00;;;1.70;;
59169;SDS011;52474;52.236;5.114;2023-04-03T02:37:36;4.05;;;1.13;;
59169;SDS011;52474;52.236;5.114;2023-04-03T02:40:03;4.25;;;1.58;;
59169;SDS011;52474;52.236;5.114;2023-04-03T02:42:30;9.50;;;1.50;;
59169;SDS011;52474;52.236;5.114;2023-04-03T02:44:56;3.85;;;1.58;;
59169;SDS011;52474;52.236;5.114;2023-04-03T02:47:22;2.08;;;1.50;;
59169;SDS011;52474;52.236;5.114;2023-04-03T02:49:48;3.83;;;1.88;;
59169;SDS011;52474;52.236;5.114;2023-04-03T02:52:14;3.88;;;1.65;;
59169;SDS011;52474;52.236;5.114;2023-04-03T02:54:40;2.95;;;1.60;;
59169;SDS011;52474;52.236;5.114;2023-04-03T02:57:08;4.28;;;1.40;;
59169;SDS011;52474;52.236;5.114;2023-04-03T02:59:38;4.20;;;1.80;;
59169;SDS011;52474;52.236;5.114;2023-04-03T03:02:08;2.88;;;1.60;;
59169;SDS011;52474;52.236;5.114;2023-04-03T03:04:34;2.22;;;1.55;;
59169;SDS011;52474;52.236;5.114;2023-04-03T03:07:01;4.28;;;1.60;;
59169;SDS011;52474;52.236;5.114;2023-04-03T03:09:27;5.97;;;1.52;;
59169;SDS011;52474;52.236;5.114;2023-04-03T03:11:55;4.35;;;1.70;;
59169;SDS011;52474;52.236;5.114;2023-04-03T03:14:21;3.85;;;1.73;;
59169;SDS011;52474;52.236;5.114;2023-04-03T03:16:47;6.28;;;1.50;;
59169;SDS011;52474;52.236;5.114;2023-04-03T03:19:13;3.60;;;2.05;;
59169;SDS011;52474;52.236;5.114;2023-04-03T03:21:39;2.13;;;1.63;;
59169;SDS011;52474;52.236;5.114;2023-04-03T03:24:05;3.42;;;1.20;;
59169;SDS011;52474;52.236;5.114;2023-04-03T03:26:32;5.53;;;1.95;;
59169;SDS011;52474;52.236;5.114;2023-04-03T03:28:57;3.55;;;1.60;;
59169;SDS011;52474;52.236;5.114;2023-04-03T03:31:23;7.50;;;1.80;;
59169;SDS011;52474;52.236;5.114;2023-04-03T03:33:49;3.70;;;1.73;;
59169;SDS011;52474;52.236;5.114;2023-04-03T03:36:15;5.15;;;1.73;;
59169;SDS011;52474;52.236;5.114;2023-04-03T03:38:41;4.40;;;1.70;;
59169;SDS011;52474;52.236;5.114;2023-04-03T03:41:08;3.80;;;1.30;;
59169;SDS011;52474;52.236;5.114;2023-04-03T03:43:34;3.08;;;1.92;;
59169;SDS011;52474;52.236;5.114;2023-04-03T03:46:02;4.80;;;1.52;;
59169;SDS011;52474;52.236;5.114;2023-04-03T03:48:28;6.38;;;1.67;;
59169;SDS011;52474;52.236;5.114;2023-04-03T03:50:55;2.83;;;1.60;;
59169;SDS011;52474;52.236;5.114;2023-04-03T03:53:25;3.15;;;1.67;;
59169;SDS011;52474;52.236;5.114;2023-04-03T03:55:54;3.70;;;1.90;;
59169;SDS011;52474;52.236;5.114;2023-04-03T03:58:22;5.82;;;2.03;;
59169;SDS011;52474;52.236;5.114;2023-04-03T04:00:48;5.00;;;1.73;;
59169;SDS011;52474;52.236;5.114;2023-04-03T04:03:14;2.83;;;1.83;;
59169;SDS011;52474;52.236;5.114;2023-04-03T04:05:42;3.35;;;1.52;;
59169;SDS011;52474;52.236;5.114;2023-04-03T04:08:09;4.97;;;1.65;;
59169;SDS011;52474;52.236;5.114;2023-04-03T04:10:35;4.60;;;1.63;;
59169;SDS011;52474;52.236;5.114;2023-04-03T04:13:03;4.80;;;1.75;;
59169;SDS011;52474;52.236;5.114;2023-04-03T04:15:30;3.60;;;1.85;;
59169;SDS011;52474;52.236;5.114;2023-04-03T04:17:57;2.65;;;1.40;;
59169;SDS011;52474;52.236;5.114;2023-04-03T04:20:22;5.53;;;2.00;;
59169;SDS011;52474;52.236;5.114;2023-04-03T04:22:49;4.72;;;2.20;;
59169;SDS011;52474;52.236;5.114;2023-04-03T04:25:16;3.63;;;2.10;;
59169;SDS011;52474;52.236;5.114;2023-04-03T04:27:41;4.65;;;2.00;;
59169;SDS011;52474;52.236;5.114;2023-04-03T04:30:08;4.82;;;1.83;;
59169;SDS011;52474;52.236;5.114;2023-04-03T04:32:36;6.63;;;1.92;;
59169;SDS011;52474;52.236;5.114;2023-04-03T04:35:03;4.50;;;2.13;;
59169;SDS011;52474;52.236;5.114;2023-04-03T04:37:31;12.23;;;2.00;;
59169;SDS011;52474;52.236;5.114;2023-04-03T04:39:58;4.63;;;1.80;;
59169;SDS011;52474;52.236;5.114;2023-04-03T04:42:26;5.70;;;1.92;;
59169;SDS011;52474;52.236;5.114;2023-04-03T04:44:52;4.95;;;1.83;;
59169;SDS011;52474;52.236;5.114;2023-04-03T04:47:20;4.70;;;1.95;;
59169;SDS011;52474;52.236;5.114;2023-04-03T04:49:46;6.03;;;2.00;;
59169;SDS011;52474;52.236;5.114;2023-04-03T04:52:13;4.72;;;1.88;;
59169;SDS011;52474;52.236;5.114;2023-04-03T04:54:40;7.05;;;2.30;;
59169;SDS011;52474;52.236;5.114;2023-04-03T04:57:06;3.72;;;1.80;;
59169;SDS011;52474;52.236;5.114;2023-04-03T04:59:32;7.82;;;3.08;;
59169;SDS011;52474;52.236;5.114;2023-04-03T05:01:58;7.00;;;2.40;;
59169;SDS011;52474;52.236;5.114;2023-04-03T05:04:25;3.15;;;1.73;;
59169;SDS011;52474;52.236;5.114;2023-04-03T05:06:56;6.18;;;2.30;;
59169;SDS011;52474;52.236;5.114;2023-04-03T05:11:52;3.97;;;2.00;;
59169;SDS011;52474;52.236;5.114;2023-04-03T05:14:21;4.30;;;2.13;;
59169;SDS011;52474;52.236;5.114;2023-04-03T05:16:48;6.25;;;2.13;;
59169;SDS011;52474;52.236;5.114;2023-04-03T05:19:14;3.92;;;1.98;;
59169;SDS011;52474;52.236;5.114;2023-04-03T05:21:42;6.25;;;1.90;;
59169;SDS011;52474;52.236;5.114;2023-04-03T05:24:12;4.78;;;2.38;;
59169;SDS011;52474;52.236;5.114;2023-04-03T05:26:42;3.83;;;2.05;;
59169;SDS011;52474;52.236;5.114;2023-04-03T05:29:09;6.18;;;2.15;;
59169;SDS011;52474;52.236;5.114;2023-04-03T05:31:35;5.55;;;3.00;;
59169;SDS011;52474;52.236;5.114;2023-04-03T05:34:02;6.68;;;2.25;;
59169;SDS011;52474;52.236;5.114;2023-04-03T05:36:31;7.05;;;2.45;;
59169;SDS011;52474;52.236;5.114;2023-04-03T05:39:02;3.63;;;1.83;;
59169;SDS011;52474;52.236;5.114;2023-04-03T05:41:29;5.20;;;2.38;;
59169;SDS011;52474;52.236;5.114;2023-04-03T05:43:55;17.38;;;2.60;;
59169;SDS011;52474;52.236;5.114;2023-04-03T05:46:24;4.97;;;2.23;;
59169;SDS011;52474;52.236;5.114;2023-04-03T05:48:54;5.13;;;2.05;;
59169;SDS011;52474;52.236;5.114;2023-04-03T05:51:24;4.20;;;2.13;;
59169;SDS011;52474;52.236;5.114;2023-04-03T05:54:00;3.25;;;1.95;;
59169;SDS011;52474;52.236;5.114;2023-04-03T05:56:34;2.08;;;1.58;;
59169;SDS011;52474;52.236;5.114;2023-04-03T05:59:01;7.03;;;2.55;;
59169;SDS011;52474;52.236;5.114;2023-04-03T06:01:27;7.20;;;1.95;;
59169;SDS011;52474;52.236;5.114;2023-04-03T06:03:54;5.50;;;2.30;;
59169;SDS011;52474;52.236;5.114;2023-04-03T06:06:26;4.55;;;2.08;;
59169;SDS011;52474;52.236;5.114;2023-04-03T06:09:09;7.03;;;2.55;;
59169;SDS011;52474;52.236;5.114;2023-04-03T06:11:34;7.18;;;2.05;;
59169;SDS011;52474;52.236;5.114;2023-04-03T06:14:01;5.32;;;2.13;;
59169;SDS011;52474;52.236;5.114;2023-04-03T06:16:28;6.20;;;2.10;;
59169;SDS011;52474;52.236;5.114;2023-04-03T06:18:54;6.50;;;2.15;;
59169;SDS011;52474;52.236;5.114;2023-04-03T06:21:22;4.43;;;2.13;;
59169;SDS011;52474;52.236;5.114;2023-04-03T06:23:49;3.63;;;2.08;;
59169;SDS011;52474;52.236;5.114;2023-04-03T06:26:14;5.13;;;2.03;;
59169;SDS011;52474;52.236;5.114;2023-04-03T06:28:40;9.82;;;2.25;;
59169;SDS011;52474;52.236;5.114;2023-04-03T06:31:06;3.72;;;2.00;;
59169;SDS011;52474;52.236;5.114;2023-04-03T06:33:34;4.05;;;1.95;;
59169;SDS011;52474;52.236;5.114;2023-04-03T06:36:03;4.15;;;2.10;;
59169;SDS011;52474;52.236;5.114;2023-04-03T06:38:30;5.85;;;2.00;;
59169;SDS011;52474;52.236;5.114;2023-04-03T06:40:56;3.85;;;2.38;;
59169;SDS011;52474;52.236;5.114;2023-04-03T06:43:22;5.15;;;2.05;;
59169;SDS011;52474;52.236;5.114;2023-04-03T06:45:48;3.67;;;1.83;;
59169;SDS011;52474;52.236;5.114;2023-04-03T06:48:14;5.00;;;2.25;;
59169;SDS011;52474;52.236;5.114;2023-04-03T06:50:40;7.93;;;2.20;;
59169;SDS011;52474;52.236;5.114;2023-04-03T06:53:06;2.25;;;1.58;;
59169;SDS011;52474;52.236;5.114;2023-04-03T06:55:32;5.82;;;1.80;;
59169;SDS011;52474;52.236;5.114;2023-04-03T06:57:58;3.55;;;1.67;;
59169;SDS011;52474;52.236;5.114;2023-04-03T07:00:24;5.18;;;2.20;;
59169;SDS011;52474;52.236;5.114;2023-04-03T07:02:50;2.90;;;1.52;;
59169;SDS011;52474;52.236;5.114;2023-04-03T07:05:16;3.90;;;1.90;;
59169;SDS011;52474;52.236;5.114;2023-04-03T07:07:43;5.40;;;1.80;;
59169;SDS011;52474;52.236;5.114;2023-04-03T07:10:09;4.40;;;2.15;;
59169;SDS011;52474;52.236;5.114;2023-04-03T07:12:36;3.30;;;1.65;;
59169;SDS011;52474;52.236;5.114;2023-04-03T07:15:04;2.58;;;1.73;;
59169;SDS011;52474;52.236;5.114;2023-04-03T07:17:30;3.40;;;1.55;;
59169;SDS011;52474;52.236;5.114;2023-04-03T07:19:56;4.97;;;2.03;;
59169;SDS011;52474;52.236;5.114;2023-04-03T07:22:22;4.40;;;2.00;;
59169;SDS011;52474;52.236;5.114;2023-04-03T07:24:48;8.25;;;2.33;;
59169;SDS011;52474;52.236;5.114;2023-04-03T07:27:13;5.20;;;1.98;;
59169;SDS011;52474;52.236;5.114;2023-04-03T07:29:39;4.05;;;1.63;;
59169;SDS011;52474;52.236;5.114;2023-04-03T07:32:06;5.10;;;2.03;;
59169;SDS011;52474;52.236;5.114;2023-04-03T07:34:32;5.18;;;1.65;;
59169;SDS011;52474;52.236;5.114;2023-04-03T07:36:58;4.07;;;1.88;;
59169;SDS011;52474;52.236;5.114;2023-04-03T07:39:25;3.40;;;1.90;;
59169;SDS011;52474;52.236;5.114;2023-04-03T07:41:51;5.47;;;2.15;;
59169;SDS011;52474;52.236;5.114;2023-04-03T07:44:17;4.97;;;1.70;;
59169;SDS011;52474;52.236;5.114;2023-04-03T07:46:43;4.25;;;2.10;;
59169;SDS011;52474;52.236;5.114;2023-04-03T07:49:09;3.47;;;1.52;;
59169;SDS011;52474;52.236;5.114;2023-04-03T07:51:35;8.38;;;2.53;;
59169;SDS011;52474;52.236;5.114;2023-04-03T07:54:01;10.85;;;1.90;;
59169;SDS011;52474;52.236;5.114;2023-04-03T07:56:27;4.90;;;1.90;;
59169;SDS011;52474;52.236;5.114;2023-04-03T07:58:52;4.72;;;1.80;;
59169;SDS011;52474;52.236;5.114;2023-04-03T08:01:19;4.45;;;1.95;;
59169;SDS011;52474;52.236;5.114;2023-04-03T08:03:45;3.63;;;1.92;;
59169;SDS011;52474;52.236;5.114;2023-04-03T08:06:10;5.50;;;1.73;;
59169;SDS011;52474;52.236;5.114;2023-04-03T08:08:36;4.55;;;1.67;;
59169;SDS011;52474;52.236;5.114;2023-04-03T08:11:02;1.67;;;1.38;;
59169;SDS011;52474;52.236;5.114;2023-04-03T08:13:31;4.00;;;1.92;;
59169;SDS011;52474;52.236;5.114;2023-04-03T08:16:06;4.43;;;1.90;;
59169;SDS011;52474;52.236;5.114;2023-04-03T08:18:33;3.67;;;1.58;;
59169;SDS011;52474;52.236;5.114;2023-04-03T08:20:59;5.55;;;1.80;;
59169;SDS011;52474;52.236;5.114;2023-04-03T08:23:25;3.10;;;1.27;;
59169;SDS011;52474;52.236;5.114;2023-04-03T08:25:51;2.63;;;1.45;;
59169;SDS011;52474;52.236;5.114;2023-04-03T08:28:17;4.28;;;1.75;;
59169;SDS011;52474;52.236;5.114;2023-04-03T08:30:44;3.90;;;1.60;;
59169;SDS011;52474;52.236;5.114;2023-04-03T08:33:12;4.13;;;1.50;;
59169;SDS011;52474;52.236;5.114;2023-04-03T08:35:38;2.85;;;1.33;;
59169;SDS011;52474;52.236;5.114;2023-04-03T08:38:05;2.22;;;1.25;;
59169;SDS011;52474;52.236;5.114;2023-04-03T08:40:36;4.20;;;1.27;;
59169;SDS011;52474;52.236;5.114;2023-04-03T08:45:59;3.22;;;1.42;;
59169;SDS011;52474;52.236;5.114;2023-04-03T08:48:35;2.90;;;1.35;;
59169;SDS011;52474;52.236;5.114;2023-04-03T08:51:09;3.00;;;1.20;;
59169;SDS011;52474;52.236;5.114;2023-04-03T08:53:46;2.92;;;1.30;;
59169;SDS011;52474;52.236;5.114;2023-04-03T08:56:31;2.63;;;1.30;;
59169;SDS011;52474;52.236;5.114;2023-04-03T08:59:06;2.50;;;1.45;;
59169;SDS011;52474;52.236;5.114;2023-04-03T09:01:39;1.67;;;0.90;;
59169;SDS011;52474;52.236;5.114;2023-04-03T09:04:13;3.83;;;1.27;;
59169;SDS011;52474;52.236;5.114;2023-04-03T09:06:55;2.03;;;1.00;;
59169;SDS011;52474;52.236;5.114;2023-04-03T09:09:31;4.13;;;1.20;;
59169;SDS011;52474;52.236;5.114;2023-04-03T09:22:45;3.97;;;0.88;;
59169;SDS011;52474;52.236;5.114;2023-04-03T09:25:25;1.40;;;1.00;;
59169;SDS011;52474;52.236;5.114;2023-04-03T09:27:57;1.27;;;0.70;;
59169;SDS011;52474;52.236;5.114;2023-04-03T09:30:29;2.20;;;1.17;;
59169;SDS011;52474;52.236;5.114;2023-04-03T09:32:55;1.77;;;0.80;;
59169;SDS011;52474;52.236;5.114;2023-04-03T09:35:26;2.28;;;1.00;;
59169;SDS011;52474;52.236;5.114;2023-04-03T09:38:02;2.40;;;1.00;;
59169;SDS011;52474;52.236;5.114;2023-04-03T09:40:42;2.03;;;0.60;;
59169;SDS011;52474;52.236;5.114;2023-04-03T09:45:42;1.42;;;0.80;;
59169;SDS011;52474;52.236;5.114;2023-04-03T09:53:31;1.63;;;0.70;;
59169;SDS011;52474;52.236;5.114;2023-04-03T09:56:00;1.55;;;0.70;;
59169;SDS011;52474;52.236;5.114;2023-04-03T09:58:31;1.85;;;0.70;;
59169;SDS011;52474;52.236;5.114;2023-04-03T10:01:03;2.47;;;1.10;;
59169;SDS011;52474;52.236;5.114;2023-04-03T10:03:30;1.30;;;0.98;;
59169;SDS011;52474;52.236;5.114;2023-04-03T10:05:58;2.92;;;1.00;;
59169;SDS011;52474;52.236;5.114;2023-04-03T10:13:55;2.70;;;1.00;;
59169;SDS011;52474;52.236;5.114;2023-04-03T10:16:38;2.15;;;1.00;;
59169;SDS011;52474;52.236;5.114;2023-04-03T10:32:57;1.17;;;0.70;;
59169;SDS011;52474;52.236;5.114;2023-04-03T10:35:59;1.10;;;0.68;;
59169;SDS011;52474;52.236;5.114;2023-04-03T10:41:42;2.08;;;0.63;;
59169;SDS011;52474;52.236;5.114;2023-04-03T10:58:20;1.38;;;0.88;;
59169;SDS011;52474;52.236;5.114;2023-04-03T11:00:54;0.70;;;0.63;;
59169;SDS011;52474;52.236;5.114;2023-04-03T11:05:56;1.52;;;0.63;;
59169;SDS011;52474;52.236;5.114;2023-04-03T11:11:13;1.58;;;0.80;;
59169;SDS011;52474;52.236;5.114;2023-04-03T11:13:49;1.77;;;0.70;;
59169;SDS011;52474;52.236;5.114;2023-04-03T11:16:21;1.63;;;0.70;;
59169;SDS011;52474;52.236;5.114;2023-04-03T11:19:04;1.65;;;0.70;;
59169;SDS011;52474;52.236;5.114;2023-04-03T11:21:46;1.67;;;0.70;;
59169;SDS011;52474;52.236;5.114;2023-04-03T11:24:25;1.30;;;0.70;;
59169;SDS011;52474;52.236;5.114;2023-04-03T11:26:54;1.40;;;0.60;;
59169;SDS011;52474;52.236;5.114;2023-04-03T11:29:33;0.80;;;0.80;;
59169;SDS011;52474;52.236;5.114;2023-04-03T11:34:56;1.70;;;0.77;;
59169;SDS011;52474;52.236;5.114;2023-04-03T11:37:33;1.40;;;0.70;;
59169;SDS011;52474;52.236;5.114;2023-04-03T11:47:57;0.98;;;0.73;;
59169;SDS011;52474;52.236;5.114;2023-04-03T11:53:00;1.00;;;0.60;;
59169;SDS011;52474;52.236;5.114;2023-04-03T12:08:52;1.42;;;0.90;;
59169;SDS011;52474;52.236;5.114;2023-04-03T12:11:31;3.35;;;0.90;;
59169;SDS011;52474;52.236;5.114;2023-04-03T12:16:33;1.10;;;0.80;;
59169;SDS011;52474;52.236;5.114;2023-04-03T12:48:38;2.75;;;0.73;;
59169;SDS011;52474;52.236;5.114;2023-04-03T12:51:18;1.77;;;0.70;;
59169;SDS011;52474;52.236;5.114;2023-04-03T12:53:48;1.35;;;0.90;;
59169;SDS011;52474;52.236;5.114;2023-04-03T12:56:21;1.27;;;0.60;;
59169;SDS011;52474;52.236;5.114;2023-04-03T12:58:50;2.05;;;0.70;;
59169;SDS011;52474;52.236;5.114;2023-04-03T13:01:36;3.83;;;0.90;;
59169;SDS011;52474;52.236;5.114;2023-04-03T13:04:01;0.75;;;0.68;;
59169;SDS011;52474;52.236;5.114;2023-04-03T13:06:39;1.48;;;0.93;;
59169;SDS011;52474;52.236;5.114;2023-04-03T13:09:20;2.00;;;0.85;;
59169;SDS011;52474;52.236;5.114;2023-04-03T13:12:00;1.70;;;0.93;;
59169;SDS011;52474;52.236;5.114;2023-04-03T13:14:29;1.05;;;0.70;;
59169;SDS011;52474;52.236;5.114;2023-04-03T13:17:03;1.00;;;0.80;;
59169;SDS011;52474;52.236;5.114;2023-04-03T13:19:35;1.63;;;1.00;;
59169;SDS011;52474;52.236;5.114;2023-04-03T13:22:10;1.92;;;0.80;;
59169;SDS011;52474;52.236;5.114;2023-04-03T13:24:46;1.17;;;1.08;;
59169;SDS011;52474;52.236;5.114;2023-04-03T13:27:14;2.80;;;0.80;;
59169;SDS011;52474;52.236;5.114;2023-04-03T13:29:40;1.95;;;0.73;;
59169;SDS011;52474;52.236;5.114;2023-04-03T13:32:07;2.28;;;0.88;;
59169;SDS011;52474;52.236;5.114;2023-04-03T13:34:45;2.85;;;0.93;;
59169;SDS011;52474;52.236;5.114;2023-04-03T13:37:32;1.98;;;0.80;;
59169;SDS011;52474;52.236;5.114;2023-04-03T13:40:00;1.60;;;0.90;;
59169;SDS011;52474;52.236;5.114;2023-04-03T13:42:29;1.40;;;0.63;;
59169;SDS011;52474;52.236;5.114;2023-04-03T13:48:16;1.58;;;0.90;;
59169;SDS011;52474;52.236;5.114;2023-04-03T13:51:00;1.42;;;0.90;;
59169;SDS011;52474;52.236;5.114;2023-04-03T13:53:30;1.20;;;0.70;;
59169;SDS011;52474;52.236;5.114;2023-04-03T13:56:08;2.72;;;0.95;;
59169;SDS011;52474;52.236;5.114;2023-04-03T13:58:51;1.55;;;0.85;;
59169;SDS011;52474;52.236;5.114;2023-04-03T14:01:24;2.65;;;0.80;;
59169;SDS011;52474;52.236;5.114;2023-04-03T14:06:19;2.08;;;0.63;;
59169;SDS011;52474;52.236;5.114;2023-04-03T14:08:46;2.25;;;0.95;;
59169;SDS011;52474;52.236;5.114;2023-04-03T14:11:18;2.17;;;1.00;;
59169;SDS011;52474;52.236;5.114;2023-04-03T14:13:46;1.50;;;0.90;;
59169;SDS011;52474;52.236;5.114;2023-04-03T14:16:15;2.17;;;0.90;;
59169;SDS011;52474;52.236;5.114;2023-04-03T14:18:44;2.28;;;0.82;;
59169;SDS011;52474;52.236;5.114;2023-04-03T14:21:12;1.42;;;0.70;;
59169;SDS011;52474;52.236;5.114;2023-04-03T14:23:42;1.45;;;0.85;;
59169;SDS011;52474;52.236;5.114;2023-04-03T14:26:16;4.05;;;1.00;;
59169;SDS011;52474;52.236;5.114;2023-04-03T14:28:47;3.10;;;0.85;;
59169;SDS011;52474;52.236;5.114;2023-04-03T14:31:14;1.83;;;0.80;;
59169;SDS011;52474;52.236;5.114;2023-04-03T14:33:41;2.65;;;1.05;;
59169;SDS011;52474;52.236;5.114;2023-04-03T14:36:14;1.13;;;0.82;;
59169;SDS011;52474;52.236;5.114;2023-04-03T14:38:47;1.75;;;0.77;;
59169;SDS011;52474;52.236;5.114;2023-04-03T14:41:17;3.13;;;1.20;;
59169;SDS011;52474;52.236;5.114;2023-04-03T14:43:46;2.95;;;1.08;;
59169;SDS011;52474;52.236;5.114;2023-04-03T14:48:58;2.85;;;1.20;;
59169;SDS011;52474;52.236;5.114;2023-04-03T14:51:25;3.10;;;1.00;;
59169;SDS011;52474;52.236;5.114;2023-04-03T14:53:51;2.55;;;1.00;;
59169;SDS011;52474;52.236;5.114;2023-04-03T14:56:19;2.53;;;1.10;;
59169;SDS011;52474;52.236;5.114;2023-04-03T14:58:58;2.50;;;1.05;;
59169;SDS011;52474;52.236;5.114;2023-04-03T15:01:26;2.85;;;1.10;;
59169;SDS011;52474;52.236;5.114;2023-04-03T15:03:53;2.70;;;1.20;;
59169;SDS011;52474;52.236;5.114;2023-04-03T15:06:22;0.90;;;0.70;;
59169;SDS011;52474;52.236;5.114;2023-04-03T15:08:48;3.42;;;0.77;;
59169;SDS011;52474;52.236;5.114;2023-04-03T15:11:14;3.03;;;1.10;;
59169;SDS011;52474;52.236;5.114;2023-04-03T15:13:40;1.40;;;0.93;;
59169;SDS011;52474;52.236;5.114;2023-04-03T15:16:14;3.33;;;0.90;;
59169;SDS011;52474;52.236;5.114;2023-04-03T15:18:43;1.83;;;0.80;;
59169;SDS011;52474;52.236;5.114;2023-04-03T15:21:10;2.72;;;0.85;;
59169;SDS011;52474;52.236;5.114;2023-04-03T15:23:36;2.13;;;1.30;;
59169;SDS011;52474;52.236;5.114;2023-04-03T15:26:02;3.28;;;1.05;;
59169;SDS011;52474;52.236;5.114;2023-04-03T15:28:36;2.95;;;1.00;;
59169;SDS011;52474;52.236;5.114;2023-04-03T15:31:04;3.35;;;1.38;;
59169;SDS011;52474;52.236;5.114;2023-04-03T15:33:31;2.58;;;1.25;;
59169;SDS011;52474;52.236;5.114;2023-04-03T15:35:57;3.40;;;1.10;;
59169;SDS011;52474;52.236;5.114;2023-04-03T15:38:23;3.28;;;0.90;;
59169;SDS011;52474;52.236;5.114;2023-04-03T15:40:49;3.30;;;1.00;;
59169;SDS011;52474;52.236;5.114;2023-04-03T15:43:15;1.88;;;0.98;;
59169;SDS011;52474;52.236;5.114;2023-04-03T15:45:41;3.83;;;1.23;;
59169;SDS011;52474;52.236;5.114;2023-04-03T15:48:08;3.05;;;1.30;;
59169;SDS011;52474;52.236;5.114;2023-04-03T15:50:35;3.38;;;1.10;;
59169;SDS011;52474;52.236;5.114;2023-04-03T15:53:01;2.60;;;1.13;;
59169;SDS011;52474;52.236;5.114;2023-04-03T15:55:28;2.67;;;1.13;;
59169;SDS011;52474;52.236;5.114;2023-04-03T15:57:56;1.30;;;0.90;;
59169;SDS011;52474;52.236;5.114;2023-04-03T16:00:23;2.88;;;0.90;;
59169;SDS011;52474;52.236;5.114;2023-04-03T16:02:50;2.88;;;0.80;;
59169;SDS011;52474;52.236;5.114;2023-04-03T16:05:22;1.80;;;0.90;;
59169;SDS011;52474;52.236;5.114;2023-04-03T16:07:48;2.63;;;1.10;;
59169;SDS011;52474;52.236;5.114;2023-04-03T16:10:15;2.60;;;0.90;;
59169;SDS011;52474;52.236;5.114;2023-04-03T16:12:43;4.03;;;1.23;;
59169;SDS011;52474;52.236;5.114;2023-04-03T16:15:10;2.13;;;0.98;;
59169;SDS011;52474;52.236;5.114;2023-04-03T16:17:36;2.55;;;1.05;;
59169;SDS011;52474;52.236;5.114;2023-04-03T16:20:03;3.17;;;1.10;;
59169;SDS011;52474;52.236;5.114;2023-04-03T16:22:30;3.63;;;1.25;;
59169;SDS011;52474;52.236;5.114;2023-04-03T16:24:56;1.77;;;0.80;;
59169;SDS011;52474;52.236;5.114;2023-04-03T16:27:22;2.70;;;1.00;;
59169;SDS011;52474;52.236;5.114;2023-04-03T16:29:56;2.72;;;0.93;;
59169;SDS011;52474;52.236;5.114;2023-04-03T16:32:22;5.15;;;1.40;;
59169;SDS011;52474;52.236;5.114;2023-04-03T16:34:55;3.55;;;1.15;;
59169;SDS011;52474;52.236;5.114;2023-04-03T16:37:23;3.20;;;1.20;;
59169;SDS011;52474;52.236;5.114;2023-04-03T16:39:49;2.53;;;1.30;;
59169;SDS011;52474;52.236;5.114;2023-04-03T16:42:15;1.83;;;1.00;;
59169;SDS011;52474;52.236;5.114;2023-04-03T16:44:41;3.35;;;1.10;;
59169;SDS011;52474;52.236;5.114;2023-04-03T16:47:07;2.22;;;0.90;;
59169;SDS011;52474;52.236;5.114;2023-04-03T16:49:33;3.47;;;1.30;;
59169;SDS011;52474;52.236;5.114;2023-04-03T16:52:03;4.22;;;1.38;;
59169;SDS011;52474;52.236;5.114;2023-04-03T16:56:58;3.10;;;1.05;;
59169;SDS011;52474;52.236;5.114;2023-04-03T16:59:24;2.38;;;0.90;;
59169;SDS011;52474;52.236;5.114;2023-04-03T17:01:50;3.42;;;1.27;;
59169;SDS011;52474;52.236;5.114;2023-04-03T17:04:19;4.95;;;1.17;;
59169;SDS011;52474;52.236;5.114;2023-04-03T17:06:45;3.33;;;1.10;;
59169;SDS011;52474;52.236;5.114;2023-04-03T17:09:11;2.42;;;1.10;;
59169;SDS011;52474;52.236;5.114;2023-04-03T17:11:37;2.22;;;1.10;;
59169;SDS011;52474;52.236;5.114;2023-04-03T17:14:03;5.68;;;1.20;;